createdAt,value
2019-01-15T00:00:03.094Z,83
2019-01-15T00:01:03.551Z,83
2019-01-15T00:02:03.513Z,83
2019-01-15T00:03:03.051Z,83
2019-01-15T00:04:03.598Z,83
2019-01-15T00:05:02.729Z,83
2019-01-15T00:06:02.797Z,83
2019-01-15T00:07:03.497Z,83
2019-01-15T00:08:02.887Z,83
2019-01-15T00:09:03.397Z,83
2019-01-15T00:10:02.810Z,83
2019-01-15T00:11:02.924Z,83
2019-01-15T00:12:08.255Z,83
2019-01-15T00:13:03.146Z,83
2019-01-15T00:14:03.680Z,83
2019-01-15T00:15:02.783Z,83
2019-01-15T00:16:03.699Z,83
2019-01-15T00:17:03.509Z,83
2019-01-15T00:18:02.922Z,83
2019-01-15T00:19:03.715Z,83
2019-01-15T00:20:03.481Z,83
2019-01-15T00:21:03.560Z,83
2019-01-15T00:22:03.682Z,83
2019-01-15T00:23:02.925Z,83
2019-01-15T00:24:02.970Z,83
2019-01-15T00:25:03.117Z,83
2019-01-15T00:26:03.653Z,83
2019-01-15T00:27:03.368Z,83
2019-01-15T00:28:03.185Z,83
2019-01-15T00:29:02.828Z,83
2019-01-15T00:30:03.099Z,83
2019-01-15T00:31:02.913Z,83
2019-01-15T00:32:02.950Z,83
2019-01-15T00:33:03.015Z,83
2019-01-15T00:34:03.302Z,83
2019-01-15T00:35:02.229Z,83
2019-01-15T00:36:02.787Z,83
2019-01-15T00:37:03.187Z,83
2019-01-15T00:38:02.663Z,83
2019-01-15T00:39:03.413Z,83
2019-01-15T00:40:03.513Z,83
2019-01-15T00:41:02.967Z,83
2019-01-15T00:42:03.052Z,83
2019-01-15T00:43:03.322Z,83
2019-01-15T00:44:03.182Z,83
2019-01-15T00:45:03.780Z,83
2019-01-15T00:46:03.086Z,83
2019-01-15T00:47:03.597Z,83
2019-01-15T00:48:03.163Z,83
2019-01-15T00:49:03.725Z,83
2019-01-15T00:50:02.893Z,83
2019-01-15T00:51:03.416Z,83
2019-01-15T00:52:03.019Z,83
2019-01-15T00:53:03.212Z,83
2019-01-15T00:54:03.090Z,83
2019-01-15T00:55:03.292Z,84
2019-01-15T00:56:03.672Z,84
2019-01-15T00:57:03.517Z,84
2019-01-15T00:58:03.066Z,84
2019-01-15T00:59:02.950Z,84
2019-01-15T01:00:03.396Z,84
2019-01-15T01:01:03.140Z,84
2019-01-15T01:02:03.072Z,84
2019-01-15T01:03:02.816Z,84
2019-01-15T01:04:03.161Z,84
2019-01-15T01:05:03.598Z,84
2019-01-15T01:06:02.685Z,84
2019-01-15T01:07:03.212Z,84
2019-01-15T01:08:03.596Z,84
2019-01-15T01:09:03.842Z,84
2019-01-15T01:10:03.058Z,84
2019-01-15T01:11:03.695Z,84
2019-01-15T01:12:03.165Z,84
2019-01-15T01:13:03.015Z,84
2019-01-15T01:14:03.019Z,84
2019-01-15T01:15:03.788Z,84
2019-01-15T01:16:03.592Z,84
2019-01-15T01:17:02.939Z,84
2019-01-15T01:18:02.598Z,84
2019-01-15T01:19:03.514Z,84
2019-01-15T01:20:02.834Z,85
2019-01-15T01:21:03.454Z,85
2019-01-15T01:22:03.239Z,85
2019-01-15T01:23:04.002Z,85
2019-01-15T01:24:03.744Z,85
2019-01-15T01:25:03.227Z,85
2019-01-15T01:26:02.869Z,85
2019-01-15T01:27:03.570Z,85
2019-01-15T01:28:03.394Z,85
2019-01-15T01:29:03.129Z,85
2019-01-15T01:30:02.769Z,85
2019-01-15T01:31:02.985Z,85
2019-01-15T01:32:03.418Z,85
2019-01-15T01:33:03.110Z,85
2019-01-15T01:34:03.634Z,85
2019-01-15T01:35:03.327Z,85
2019-01-15T01:36:03.565Z,85
2019-01-15T01:37:03.307Z,85
2019-01-15T01:38:03.509Z,85
2019-01-15T01:39:02.923Z,85
2019-01-15T01:40:03.350Z,85
2019-01-15T01:41:03.604Z,85
2019-01-15T01:42:03.159Z,85
2019-01-15T01:43:03.428Z,85
2019-01-15T01:44:02.742Z,85
2019-01-15T01:45:03.866Z,85
2019-01-15T01:46:03.572Z,85
2019-01-15T01:47:02.755Z,85
2019-01-15T01:48:03.404Z,85
2019-01-15T01:49:03.292Z,85
2019-01-15T01:50:03.512Z,85
2019-01-15T01:51:03.169Z,85
2019-01-15T01:52:03.164Z,85
2019-01-15T01:53:02.918Z,85
2019-01-15T01:54:03.329Z,85
2019-01-15T01:55:03.234Z,85
2019-01-15T01:56:03.678Z,85
2019-01-15T01:57:03.102Z,85
2019-01-15T01:58:03.511Z,85
2019-01-15T01:59:02.772Z,85
2019-01-15T02:00:03.273Z,85
2019-01-15T02:01:03.657Z,85
2019-01-15T02:02:03.475Z,85
2019-01-15T02:03:02.727Z,85
2019-01-15T02:04:03.822Z,85
2019-01-15T02:05:03.116Z,85
2019-01-15T02:06:03.262Z,85
2019-01-15T02:07:03.652Z,85
2019-01-15T02:08:02.716Z,85
2019-01-15T02:09:03.469Z,85
2019-01-15T02:10:03.247Z,85
2019-01-15T02:11:03.181Z,85
2019-01-15T02:12:03.347Z,85
2019-01-15T02:13:02.954Z,85
2019-01-15T02:14:03.078Z,85
2019-01-15T02:15:03.397Z,85
2019-01-15T02:16:02.804Z,85
2019-01-15T02:17:02.814Z,85
2019-01-15T02:18:03.333Z,85
2019-01-15T02:19:03.335Z,85
2019-01-15T02:20:03.013Z,85
2019-01-15T02:21:03.638Z,85
2019-01-15T02:22:03.452Z,85
2019-01-15T02:23:03.633Z,85
2019-01-15T02:24:03.349Z,85
2019-01-15T02:25:03.636Z,85
2019-01-15T02:26:03.119Z,85
2019-01-15T02:27:03.241Z,85
2019-01-15T02:28:03.028Z,85
2019-01-15T02:29:03.040Z,85
2019-01-15T02:30:02.943Z,85
2019-01-15T02:31:03.374Z,85
2019-01-15T02:32:03.299Z,85
2019-01-15T02:33:03.152Z,85
2019-01-15T02:34:02.931Z,85
2019-01-15T02:35:03.533Z,85
2019-01-15T02:36:03.048Z,85
2019-01-15T02:37:03.755Z,85
2019-01-15T02:38:03.207Z,85
2019-01-15T02:39:03.403Z,85
2019-01-15T02:40:03.388Z,85
2019-01-15T02:41:03.518Z,85
2019-01-15T02:42:03.692Z,85
2019-01-15T02:43:03.756Z,85
2019-01-15T02:44:03.274Z,85
2019-01-15T02:45:03.795Z,85
2019-01-15T02:46:03.576Z,85
2019-01-15T02:47:03.448Z,86
2019-01-15T02:48:03.085Z,86
2019-01-15T02:49:03.372Z,86
2019-01-15T02:50:03.021Z,86
2019-01-15T02:51:03.591Z,86
2019-01-15T02:52:03.199Z,86
2019-01-15T02:53:02.835Z,86
2019-01-15T02:54:03.394Z,86
2019-01-15T02:55:03.190Z,86
2019-01-15T02:56:03.209Z,86
2019-01-15T02:57:03.377Z,86
2019-01-15T02:58:02.754Z,86
2019-01-15T02:59:03.319Z,86
2019-01-15T03:00:03.822Z,86
2019-01-15T03:01:03.414Z,86
2019-01-15T03:02:03.189Z,86
2019-01-15T03:03:03.667Z,86
2019-01-15T03:04:02.910Z,86
2019-01-15T03:05:02.850Z,86
2019-01-15T03:06:02.778Z,86
2019-01-15T03:07:02.970Z,86
2019-01-15T03:08:03.702Z,86
2019-01-15T03:09:03.082Z,86
2019-01-15T03:10:02.788Z,86
2019-01-15T03:11:03.783Z,86
2019-01-15T03:12:02.776Z,86
2019-01-15T03:13:03.435Z,86
2019-01-15T03:14:03.850Z,86
2019-01-15T03:15:03.367Z,86
2019-01-15T03:16:02.968Z,86
2019-01-15T03:17:03.290Z,86
2019-01-15T03:18:03.668Z,86
2019-01-15T03:19:02.906Z,86
2019-01-15T03:20:03.765Z,86
2019-01-15T03:21:02.997Z,86
2019-01-15T03:22:03.440Z,86
2019-01-15T03:23:03.112Z,86
2019-01-15T03:24:03.659Z,86
2019-01-15T03:25:02.649Z,86
2019-01-15T03:26:03.229Z,86
2019-01-15T03:27:03.364Z,86
2019-01-15T03:28:03.286Z,86
2019-01-15T03:29:03.679Z,86
2019-01-15T03:30:03.714Z,86
2019-01-15T03:31:04.233Z,86
2019-01-15T03:32:03.613Z,86
2019-01-15T03:33:03.717Z,86
2019-01-15T03:34:02.934Z,86
2019-01-15T03:35:03.675Z,86
2019-01-15T03:36:03.290Z,86
2019-01-15T03:37:02.681Z,86
2019-01-15T03:38:03.047Z,86
2019-01-15T03:39:03.022Z,86
2019-01-15T03:40:03.423Z,86
2019-01-15T03:41:02.903Z,86
2019-01-15T03:42:03.393Z,86
2019-01-15T03:43:04.482Z,86
2019-01-15T03:44:02.916Z,86
2019-01-15T03:45:05.393Z,86
2019-01-15T03:46:04.824Z,86
2019-01-15T03:47:03.688Z,86
2019-01-15T03:48:03.398Z,86
2019-01-15T03:49:02.768Z,86
2019-01-15T03:50:03.321Z,86
2019-01-15T03:51:03.814Z,86
2019-01-15T03:52:03.190Z,86
2019-01-15T03:53:03.403Z,86
2019-01-15T03:54:03.623Z,86
2019-01-15T03:55:03.716Z,85
2019-01-15T03:56:02.953Z,85
2019-01-15T03:57:03.694Z,85
2019-01-15T03:58:02.808Z,85
2019-01-15T03:59:03.307Z,85
2019-01-15T04:00:03.034Z,85
2019-01-15T04:01:03.271Z,85
2019-01-15T04:02:03.070Z,85
2019-01-15T04:03:02.670Z,85
2019-01-15T04:04:03.027Z,85
2019-01-15T04:05:02.905Z,85
2019-01-15T04:06:03.296Z,85
2019-01-15T04:07:03.267Z,85
2019-01-15T04:08:03.615Z,85
2019-01-15T04:09:02.993Z,85
2019-01-15T04:10:03.248Z,85
2019-01-15T04:11:03.512Z,85
2019-01-15T04:12:03.714Z,85
2019-01-15T04:13:11.754Z,85
2019-01-15T04:14:03.029Z,85
2019-01-15T04:15:02.880Z,85
2019-01-15T04:16:03.241Z,85
2019-01-15T04:17:03.529Z,85
2019-01-15T04:18:03.113Z,85
2019-01-15T04:19:03.459Z,85
2019-01-15T04:20:03.821Z,85
2019-01-15T04:21:03.002Z,85
2019-01-15T04:22:02.957Z,85
2019-01-15T04:23:03.101Z,85
2019-01-15T04:24:03.053Z,85
2019-01-15T04:25:03.964Z,85
2019-01-15T04:26:02.704Z,85
2019-01-15T04:27:02.766Z,85
2019-01-15T04:28:03.584Z,85
2019-01-15T04:29:03.430Z,85
2019-01-15T04:30:02.789Z,85
2019-01-15T04:31:02.858Z,85
2019-01-15T04:32:03.280Z,85
2019-01-15T04:33:03.192Z,85
2019-01-15T04:34:03.112Z,85
2019-01-15T04:35:03.420Z,85
2019-01-15T04:36:03.156Z,85
2019-01-15T04:37:03.251Z,85
2019-01-15T04:38:03.594Z,85
2019-01-15T04:39:03.230Z,85
2019-01-15T04:40:03.390Z,85
2019-01-15T04:41:02.939Z,85
2019-01-15T04:42:03.539Z,85
2019-01-15T04:43:02.727Z,85
2019-01-15T04:44:03.499Z,85
2019-01-15T04:45:03.246Z,85
2019-01-15T04:46:03.419Z,85
2019-01-15T04:47:03.776Z,85
2019-01-15T04:48:03.556Z,85
2019-01-15T04:49:03.031Z,85
2019-01-15T04:50:03.703Z,84
2019-01-15T04:51:03.565Z,84
2019-01-15T04:52:02.962Z,84
2019-01-15T04:53:02.781Z,84
2019-01-15T04:54:03.335Z,84
2019-01-15T04:55:02.890Z,84
2019-01-15T04:56:03.494Z,84
2019-01-15T04:57:02.917Z,84
2019-01-15T04:58:03.482Z,84
2019-01-15T04:59:03.315Z,84
2019-01-15T05:00:02.659Z,84
2019-01-15T05:01:02.825Z,84
2019-01-15T05:02:03.744Z,84
2019-01-15T05:03:03.606Z,84
2019-01-15T05:04:03.081Z,84
2019-01-15T05:05:03.438Z,84
2019-01-15T05:06:03.146Z,84
2019-01-15T05:07:02.943Z,84
2019-01-15T05:08:03.023Z,84
2019-01-15T05:09:03.008Z,84
2019-01-15T05:10:03.135Z,84
2019-01-15T05:11:03.256Z,84
2019-01-15T05:12:03.568Z,84
2019-01-15T05:13:03.518Z,84
2019-01-15T05:14:03.106Z,84
2019-01-15T05:15:03.748Z,84
2019-01-15T05:16:03.376Z,84
2019-01-15T05:17:03.162Z,84
2019-01-15T05:18:03.086Z,84
2019-01-15T05:19:03.458Z,84
2019-01-15T05:20:02.985Z,84
2019-01-15T05:21:03.615Z,84
2019-01-15T05:22:02.961Z,84
2019-01-15T05:23:02.621Z,84
2019-01-15T05:24:03.621Z,84
2019-01-15T05:25:03.677Z,84
2019-01-15T05:26:03.301Z,84
2019-01-15T05:27:03.233Z,84
2019-01-15T05:28:03.121Z,84
2019-01-15T05:29:03.489Z,84
2019-01-15T05:30:03.018Z,84
2019-01-15T05:31:02.715Z,84
2019-01-15T05:32:02.900Z,84
2019-01-15T05:33:03.554Z,85
2019-01-15T05:34:03.534Z,85
2019-01-15T05:35:03.251Z,85
2019-01-15T05:36:03.597Z,85
2019-01-15T05:37:02.754Z,85
2019-01-15T05:38:03.217Z,85
2019-01-15T05:39:02.908Z,85
2019-01-15T05:40:03.748Z,85
2019-01-15T05:41:03.220Z,85
2019-01-15T05:42:03.073Z,85
2019-01-15T05:43:03.490Z,85
2019-01-15T05:44:03.585Z,85
2019-01-15T05:45:03.397Z,85
2019-01-15T05:46:03.417Z,85
2019-01-15T05:47:03.208Z,85
2019-01-15T05:48:03.007Z,85
2019-01-15T05:49:03.456Z,85
2019-01-15T05:50:02.907Z,85
2019-01-15T05:51:03.161Z,85
2019-01-15T05:52:03.049Z,85
2019-01-15T05:53:02.774Z,85
2019-01-15T05:54:03.155Z,85
2019-01-15T05:55:03.761Z,85
2019-01-15T05:56:03.547Z,85
2019-01-15T05:57:03.313Z,85
2019-01-15T05:58:02.887Z,85
2019-01-15T05:59:02.834Z,85
2019-01-15T06:00:03.399Z,85
2019-01-15T06:01:03.539Z,85
2019-01-15T06:02:03.058Z,85
2019-01-15T06:03:03.418Z,85
2019-01-15T06:04:03.375Z,85
2019-01-15T06:05:03.576Z,85
2019-01-15T06:06:03.063Z,85
2019-01-15T06:07:02.963Z,85
2019-01-15T06:08:03.403Z,85
2019-01-15T06:09:03.032Z,85
2019-01-15T06:10:03.197Z,85
2019-01-15T06:11:03.313Z,85
2019-01-15T06:12:03.613Z,85
2019-01-15T06:13:03.511Z,85
2019-01-15T06:14:02.909Z,85
2019-01-15T06:15:03.731Z,85
2019-01-15T06:16:02.817Z,85
2019-01-15T06:17:03.127Z,85
2019-01-15T06:18:03.043Z,85
2019-01-15T06:19:03.009Z,85
2019-01-15T06:20:03.324Z,85
2019-01-15T06:21:02.855Z,85
2019-01-15T06:22:03.419Z,85
2019-01-15T06:23:03.107Z,85
2019-01-15T06:24:03.625Z,85
2019-01-15T06:25:03.317Z,85
2019-01-15T06:26:03.241Z,85
2019-01-15T06:27:03.096Z,85
2019-01-15T06:28:02.892Z,85
2019-01-15T06:29:03.167Z,85
2019-01-15T06:30:03.641Z,85
2019-01-15T06:31:03.415Z,85
2019-01-15T06:32:03.264Z,85
2019-01-15T06:33:02.902Z,85
2019-01-15T06:34:02.722Z,85
2019-01-15T06:35:03.186Z,85
2019-01-15T06:36:03.073Z,85
2019-01-15T06:37:03.563Z,85
2019-01-15T06:38:03.197Z,85
2019-01-15T06:39:03.514Z,85
2019-01-15T06:40:03.780Z,85
2019-01-15T06:41:03.132Z,85
2019-01-15T06:42:03.164Z,85
2019-01-15T06:43:04.057Z,85
2019-01-15T06:44:02.933Z,85
2019-01-15T06:45:03.494Z,85
2019-01-15T06:46:02.970Z,85
2019-01-15T06:47:02.721Z,84
2019-01-15T06:48:02.968Z,84
2019-01-15T06:49:03.037Z,84
2019-01-15T06:50:03.435Z,84
2019-01-15T06:51:02.967Z,84
2019-01-15T06:52:03.069Z,84
2019-01-15T06:53:02.869Z,84
2019-01-15T06:54:02.907Z,85
2019-01-15T06:55:03.090Z,84
2019-01-15T06:56:03.330Z,84
2019-01-15T06:57:03.285Z,84
2019-01-15T06:58:03.384Z,84
2019-01-15T06:59:03.446Z,84
2019-01-15T07:00:03.051Z,85
2019-01-15T07:01:03.895Z,84
2019-01-15T07:02:02.865Z,84
2019-01-15T07:03:03.222Z,84
2019-01-15T07:04:03.242Z,84
2019-01-15T07:05:03.855Z,84
2019-01-15T07:06:03.635Z,84
2019-01-15T07:07:02.946Z,84
2019-01-15T07:08:03.760Z,84
2019-01-15T07:09:03.122Z,84
2019-01-15T07:10:02.995Z,84
2019-01-15T07:11:02.877Z,84
2019-01-15T07:12:03.583Z,84
2019-01-15T07:13:03.329Z,84
2019-01-15T07:14:02.845Z,84
2019-01-15T07:15:03.334Z,84
2019-01-15T07:16:02.906Z,84
2019-01-15T07:17:02.904Z,84
2019-01-15T07:18:02.727Z,84
2019-01-15T07:19:03.266Z,84
2019-01-15T07:20:03.635Z,84
2019-01-15T07:21:03.185Z,84
2019-01-15T07:22:03.409Z,84
2019-01-15T07:23:03.395Z,84
2019-01-15T07:24:02.901Z,84
2019-01-15T07:25:03.620Z,84
2019-01-15T07:26:03.337Z,84
2019-01-15T07:27:02.960Z,84
2019-01-15T07:28:02.929Z,84
2019-01-15T07:29:03.665Z,84
2019-01-15T07:30:03.604Z,84
2019-01-15T07:31:03.366Z,84
2019-01-15T07:32:02.922Z,84
2019-01-15T07:33:02.866Z,84
2019-01-15T07:34:02.971Z,84
2019-01-15T07:35:02.893Z,84
2019-01-15T07:36:03.041Z,84
2019-01-15T07:37:03.207Z,84
2019-01-15T07:38:03.268Z,84
2019-01-15T07:39:03.426Z,84
2019-01-15T07:40:03.638Z,84
2019-01-15T07:41:03.075Z,84
2019-01-15T07:42:03.156Z,84
2019-01-15T07:43:03.239Z,84
2019-01-15T07:44:04.732Z,84
2019-01-15T07:45:03.486Z,84
2019-01-15T07:46:03.220Z,84
2019-01-15T07:47:03.040Z,84
2019-01-15T07:48:03.680Z,84
2019-01-15T07:49:03.016Z,84
2019-01-15T07:50:03.829Z,84
2019-01-15T07:51:03.572Z,84
2019-01-15T07:52:03.587Z,84
2019-01-15T07:53:03.578Z,84
2019-01-15T07:54:03.066Z,84
2019-01-15T07:55:02.766Z,84
2019-01-15T07:56:02.766Z,84
2019-01-15T07:57:03.608Z,84
2019-01-15T07:58:03.396Z,84
2019-01-15T07:59:02.700Z,84
2019-01-15T08:00:03.184Z,84
2019-01-15T08:01:03.019Z,84
2019-01-15T08:02:03.188Z,84
2019-01-15T08:03:02.922Z,84
2019-01-15T08:04:03.596Z,84
2019-01-15T08:05:03.575Z,84
2019-01-15T08:06:03.223Z,84
2019-01-15T08:07:03.109Z,84
2019-01-15T08:08:02.659Z,84
2019-01-15T08:09:03.277Z,84
2019-01-15T08:10:02.790Z,84
2019-01-15T08:11:02.956Z,84
2019-01-15T08:12:03.345Z,84
2019-01-15T08:13:02.943Z,84
2019-01-15T08:14:03.175Z,84
2019-01-15T08:15:03.183Z,84
2019-01-15T08:16:03.231Z,84
2019-01-15T08:17:02.872Z,84
2019-01-15T08:18:03.728Z,84
2019-01-15T08:19:03.427Z,84
2019-01-15T08:20:03.266Z,84
2019-01-15T08:21:03.054Z,84
2019-01-15T08:22:02.266Z,84
2019-01-15T08:23:02.820Z,84
2019-01-15T08:24:02.689Z,84
2019-01-15T08:25:03.677Z,84
2019-01-15T08:26:03.627Z,84
2019-01-15T08:27:03.355Z,84
2019-01-15T08:28:02.961Z,84
2019-01-15T08:29:02.951Z,84
2019-01-15T08:30:02.916Z,84
2019-01-15T08:31:03.209Z,84
2019-01-15T08:32:03.267Z,84
2019-01-15T08:33:02.867Z,84
2019-01-15T08:34:03.528Z,84
2019-01-15T08:35:03.095Z,84
2019-01-15T08:36:02.816Z,84
2019-01-15T08:37:03.601Z,84
2019-01-15T08:38:03.053Z,84
2019-01-15T08:39:02.988Z,84
2019-01-15T08:40:03.312Z,84
2019-01-15T08:41:02.900Z,84
2019-01-15T08:42:03.452Z,84
2019-01-15T08:43:02.631Z,84
2019-01-15T08:44:02.846Z,84
2019-01-15T08:45:03.538Z,84
2019-01-15T08:46:02.882Z,84
2019-01-15T08:47:03.600Z,84
2019-01-15T08:48:03.092Z,84
2019-01-15T08:49:02.844Z,84
2019-01-15T08:50:03.749Z,84
2019-01-15T08:51:02.953Z,84
2019-01-15T08:52:03.016Z,84
2019-01-15T08:53:03.778Z,84
2019-01-15T08:54:03.127Z,84
2019-01-15T08:55:03.867Z,84
2019-01-15T08:56:02.787Z,84
2019-01-15T08:57:02.782Z,84
2019-01-15T08:58:02.742Z,84
2019-01-15T08:59:03.128Z,84
2019-01-15T09:00:03.552Z,84
2019-01-15T09:01:03.518Z,84
2019-01-15T09:02:03.408Z,84
2019-01-15T09:03:02.959Z,84
2019-01-15T09:04:02.900Z,84
2019-01-15T09:05:02.834Z,84
2019-01-15T09:06:03.503Z,84
2019-01-15T09:07:03.402Z,84
2019-01-15T09:08:03.186Z,84
2019-01-15T09:09:03.067Z,84
2019-01-15T09:10:03.494Z,84
2019-01-15T09:11:03.576Z,84
2019-01-15T09:12:03.321Z,84
2019-01-15T09:13:03.058Z,84
2019-01-15T09:14:03.014Z,83
2019-01-15T09:15:02.924Z,83
2019-01-15T09:16:02.850Z,83
2019-01-15T09:17:11.362Z,83
2019-01-15T09:18:03.714Z,83
2019-01-15T09:19:02.669Z,83
2019-01-15T09:20:02.742Z,83
2019-01-15T09:21:02.963Z,83
2019-01-15T09:22:03.734Z,83
2019-01-15T09:23:03.362Z,83
2019-01-15T09:24:02.720Z,83
2019-01-15T09:25:03.099Z,83
2019-01-15T09:26:03.031Z,83
2019-01-15T09:27:03.062Z,83
2019-01-15T09:28:03.817Z,83
2019-01-15T09:29:03.603Z,83
2019-01-15T09:30:03.419Z,83
2019-01-15T09:31:02.940Z,83
2019-01-15T09:32:03.742Z,83
2019-01-15T09:33:03.521Z,83
2019-01-15T09:34:03.379Z,83
2019-01-15T09:35:03.736Z,83
2019-01-15T09:36:03.488Z,83
2019-01-15T09:37:02.824Z,83
2019-01-15T09:38:02.995Z,83
2019-01-15T09:40:05.879Z,83
2019-01-15T09:41:50.080Z,83
2019-01-15T09:42:02.231Z,83
2019-01-15T09:42:03.116Z,83
2019-01-15T09:43:03.046Z,83
2019-01-15T09:44:03.737Z,83
2019-01-15T09:45:03.258Z,83
2019-01-15T09:46:04.062Z,83
2019-01-15T09:47:03.555Z,83
2019-01-15T09:48:03.781Z,83
2019-01-15T09:49:03.709Z,83
2019-01-15T09:50:03.131Z,83
2019-01-15T09:51:03.806Z,83
2019-01-15T09:52:03.122Z,83
2019-01-15T09:53:03.240Z,83
2019-01-15T09:54:02.985Z,83
2019-01-15T09:55:02.820Z,83
2019-01-15T09:56:02.820Z,83
2019-01-15T09:57:03.603Z,83
2019-01-15T09:58:03.227Z,83
2019-01-15T09:59:03.492Z,83
2019-01-15T10:00:03.568Z,83
2019-01-15T10:01:03.220Z,83
2019-01-15T10:02:03.477Z,83
2019-01-15T10:03:03.066Z,83
2019-01-15T10:04:03.338Z,83
2019-01-15T10:05:03.542Z,82
2019-01-15T10:06:03.133Z,82
2019-01-15T10:07:03.074Z,82
2019-01-15T10:08:03.459Z,82
2019-01-15T10:09:02.919Z,82
2019-01-15T10:10:03.748Z,82
2019-01-15T10:11:02.658Z,82
2019-01-15T10:12:03.477Z,82
2019-01-15T10:13:03.560Z,82
2019-01-15T10:14:02.723Z,82
2019-01-15T10:15:03.287Z,82
2019-01-15T10:16:02.965Z,82
2019-01-15T10:17:03.192Z,82
2019-01-15T10:18:03.185Z,82
2019-01-15T10:19:03.011Z,82
2019-01-15T10:20:02.957Z,82
2019-01-15T10:21:03.452Z,82
2019-01-15T10:22:02.671Z,82
2019-01-15T10:23:02.724Z,82
2019-01-15T10:24:03.622Z,82
2019-01-15T10:25:03.392Z,82
2019-01-15T10:26:03.710Z,82
2019-01-15T10:27:03.141Z,82
2019-01-15T10:28:03.718Z,82
2019-01-15T10:29:02.964Z,82
2019-01-15T10:30:04.101Z,82
2019-01-15T10:31:03.024Z,82
2019-01-15T10:32:02.819Z,82
2019-01-15T10:33:03.062Z,82
2019-01-15T10:34:03.354Z,82
2019-01-15T10:35:03.308Z,82
2019-01-15T10:36:02.797Z,82
2019-01-15T10:37:02.805Z,82
2019-01-15T10:38:02.689Z,82
2019-01-15T10:39:03.487Z,82
2019-01-15T10:40:03.635Z,82
2019-01-15T10:41:02.980Z,82
2019-01-15T10:42:02.605Z,82
2019-01-15T10:43:02.712Z,82
2019-01-15T10:44:03.632Z,82
2019-01-15T10:45:03.620Z,82
2019-01-15T10:46:02.696Z,82
2019-01-15T10:47:02.901Z,82
2019-01-15T10:48:03.857Z,82
2019-01-15T10:49:02.787Z,82
2019-01-15T10:50:03.430Z,82
2019-01-15T10:51:02.766Z,82
2019-01-15T10:52:03.722Z,82
2019-01-15T10:53:03.479Z,82
2019-01-15T10:54:03.280Z,82
2019-01-15T10:55:02.868Z,82
2019-01-15T10:56:03.252Z,82
2019-01-15T10:57:03.263Z,82
2019-01-15T10:58:03.494Z,81
2019-01-15T10:59:03.377Z,81
2019-01-15T11:00:03.628Z,81
2019-01-15T11:01:03.570Z,81
2019-01-15T11:02:03.572Z,81
2019-01-15T11:03:02.797Z,81
2019-01-15T11:04:02.912Z,80
2019-01-15T11:05:02.865Z,80
2019-01-15T11:06:03.197Z,80
2019-01-15T11:07:03.466Z,80
2019-01-15T11:08:03.499Z,80
2019-01-15T11:09:02.869Z,80
2019-01-15T11:10:03.071Z,80
2019-01-15T11:11:03.482Z,80
2019-01-15T11:12:03.663Z,80
2019-01-15T11:13:03.482Z,80
2019-01-15T11:14:03.095Z,80
2019-01-15T11:15:03.184Z,80
2019-01-15T11:16:03.185Z,80
2019-01-15T11:17:03.615Z,80
2019-01-15T11:18:02.851Z,80
2019-01-15T11:19:03.539Z,80
2019-01-15T11:20:02.820Z,80
2019-01-15T11:21:03.535Z,80
2019-01-15T11:22:03.662Z,80
2019-01-15T11:23:03.558Z,80
2019-01-15T11:24:03.142Z,80
2019-01-15T11:25:03.565Z,80
2019-01-15T11:26:03.126Z,80
2019-01-15T11:27:03.571Z,80
2019-01-15T11:28:02.942Z,80
2019-01-15T11:29:02.786Z,80
2019-01-15T11:30:03.026Z,80
2019-01-15T11:31:03.138Z,80
2019-01-15T11:32:03.331Z,80
2019-01-15T11:33:02.797Z,80
2019-01-15T11:34:02.658Z,80
2019-01-15T11:35:03.189Z,80
2019-01-15T11:36:03.139Z,79
2019-01-15T11:37:03.068Z,79
2019-01-15T11:38:03.395Z,79
2019-01-15T11:39:02.930Z,79
2019-01-15T11:40:03.260Z,79
2019-01-15T11:41:03.137Z,79
2019-01-15T11:42:03.233Z,79
2019-01-15T11:43:02.980Z,79
2019-01-15T11:44:02.946Z,79
2019-01-15T11:45:04.080Z,79
2019-01-15T11:46:02.803Z,79
2019-01-15T11:47:03.451Z,79
2019-01-15T11:48:02.748Z,79
2019-01-15T11:49:03.799Z,79
2019-01-15T11:50:03.517Z,79
2019-01-15T11:51:03.103Z,79
2019-01-15T11:52:02.833Z,79
2019-01-15T11:53:03.209Z,79
2019-01-15T11:54:03.083Z,79
2019-01-15T11:55:03.316Z,79
2019-01-15T11:56:03.460Z,79
2019-01-15T11:57:03.101Z,79
2019-01-15T11:58:03.083Z,79
2019-01-15T11:59:03.262Z,79
2019-01-15T12:00:03.394Z,79
2019-01-15T12:01:03.578Z,79
2019-01-15T12:02:03.519Z,79
2019-01-15T12:03:04.091Z,79
2019-01-15T12:04:02.917Z,79
2019-01-15T12:05:03.060Z,79
2019-01-15T12:06:03.592Z,79
2019-01-15T12:07:03.377Z,79
2019-01-15T12:08:03.665Z,79
2019-01-15T12:09:03.548Z,79
2019-01-15T12:10:03.286Z,79
2019-01-15T12:11:03.101Z,79
2019-01-15T12:12:03.117Z,79
2019-01-15T12:13:03.250Z,79
2019-01-15T12:14:02.600Z,79
2019-01-15T12:15:11.277Z,79
2019-01-15T12:16:03.015Z,79
2019-01-15T12:17:03.480Z,79
2019-01-15T12:18:03.285Z,79
2019-01-15T12:19:02.933Z,79
2019-01-15T12:20:02.793Z,79
2019-01-15T12:21:03.425Z,79
2019-01-15T12:22:02.905Z,79
2019-01-15T12:23:03.104Z,79
2019-01-15T12:24:03.095Z,79
2019-01-15T12:25:03.171Z,79
2019-01-15T12:26:02.966Z,79
2019-01-15T12:27:03.062Z,79
2019-01-15T12:28:03.251Z,79
2019-01-15T12:29:03.012Z,79
2019-01-15T12:30:03.756Z,79
2019-01-15T12:31:02.993Z,79
2019-01-15T12:32:03.344Z,79
2019-01-15T12:33:03.590Z,79
2019-01-15T12:34:02.958Z,79
2019-01-15T12:35:03.374Z,79
2019-01-15T12:36:03.415Z,79
2019-01-15T12:37:03.270Z,79
2019-01-15T12:38:03.135Z,79
2019-01-15T12:39:03.486Z,79
2019-01-15T12:40:02.969Z,79
2019-01-15T12:41:02.934Z,79
2019-01-15T12:42:03.726Z,79
2019-01-15T12:43:03.477Z,79
2019-01-15T12:44:02.975Z,79
2019-01-15T12:45:03.785Z,79
2019-01-15T12:46:02.844Z,79
2019-01-15T12:47:03.745Z,79
2019-01-15T12:48:03.178Z,79
2019-01-15T12:49:02.993Z,79
2019-01-15T12:50:03.388Z,79
2019-01-15T12:51:03.623Z,79
2019-01-15T12:52:02.760Z,79
2019-01-15T12:53:03.295Z,79
2019-01-15T12:54:03.138Z,79
2019-01-15T12:55:02.870Z,79
2019-01-15T12:56:03.245Z,79
2019-01-15T12:57:02.905Z,79
2019-01-15T12:58:03.455Z,79
2019-01-15T12:59:03.054Z,79
2019-01-15T13:00:03.359Z,79
2019-01-15T13:01:03.435Z,79
2019-01-15T13:02:03.276Z,79
2019-01-15T13:03:03.465Z,79
2019-01-15T13:04:02.970Z,79
2019-01-15T13:05:02.800Z,79
2019-01-15T13:06:02.724Z,79
2019-01-15T13:07:02.955Z,78
2019-01-15T13:08:03.121Z,79
2019-01-15T13:09:03.612Z,78
2019-01-15T13:10:03.108Z,78
2019-01-15T13:11:03.153Z,78
2019-01-15T13:12:03.083Z,78
2019-01-15T13:13:03.411Z,78
2019-01-15T13:14:03.257Z,78
2019-01-15T13:15:03.165Z,78
2019-01-15T13:16:03.339Z,78
2019-01-15T13:17:03.049Z,78
2019-01-15T13:18:03.591Z,78
2019-01-15T13:19:03.446Z,78
2019-01-15T13:20:03.624Z,78
2019-01-15T13:21:02.868Z,78
2019-01-15T13:22:03.720Z,78
2019-01-15T13:23:03.320Z,78
2019-01-15T13:24:03.116Z,78
2019-01-15T13:25:03.614Z,78
2019-01-15T13:26:02.945Z,78
2019-01-15T13:27:03.538Z,78
2019-01-15T13:28:03.525Z,78
2019-01-15T13:29:02.829Z,78
2019-01-15T13:30:03.719Z,78
2019-01-15T13:31:02.747Z,78
2019-01-15T13:32:03.613Z,78
2019-01-15T13:33:03.647Z,78
2019-01-15T13:34:02.883Z,78
2019-01-15T13:35:03.545Z,78
2019-01-15T13:36:03.323Z,78
2019-01-15T13:37:02.902Z,78
2019-01-15T13:38:02.921Z,78
2019-01-15T13:39:03.707Z,78
2019-01-15T13:40:02.999Z,78
2019-01-15T13:41:03.295Z,78
2019-01-15T13:42:03.235Z,78
2019-01-15T13:43:02.708Z,78
2019-01-15T13:44:03.305Z,78
2019-01-15T13:45:03.174Z,78
2019-01-15T13:46:02.872Z,78
2019-01-15T13:47:03.147Z,78
2019-01-15T13:48:03.555Z,78
2019-01-15T13:49:03.594Z,78
2019-01-15T13:50:02.777Z,78
2019-01-15T13:51:03.502Z,78
2019-01-15T13:52:03.222Z,78
2019-01-15T13:53:03.729Z,78
2019-01-15T13:54:03.782Z,78
2019-01-15T13:55:03.583Z,78
2019-01-15T13:56:03.658Z,78
2019-01-15T13:57:03.253Z,78
2019-01-15T13:58:03.060Z,78
2019-01-15T13:59:02.839Z,78
2019-01-15T14:00:02.832Z,78
2019-01-15T14:01:02.985Z,78
2019-01-15T14:02:02.971Z,78
2019-01-15T14:03:03.037Z,78
2019-01-15T14:04:03.095Z,78
2019-01-15T14:05:03.033Z,78
2019-01-15T14:06:03.399Z,78
2019-01-15T14:07:03.677Z,78
2019-01-15T14:08:03.161Z,78
2019-01-15T14:09:03.284Z,78
2019-01-15T14:10:03.105Z,78
2019-01-15T14:11:02.834Z,78
2019-01-15T14:12:03.398Z,78
2019-01-15T14:13:02.984Z,78
2019-01-15T14:14:02.818Z,78
2019-01-15T14:15:03.028Z,78